Chingolo, Zambia
Current Conditions -  °F | °C
As of 9:00 AM on Tuesday 21 Oct 2014 (Local Time) from FLKK Reporting Station
Clear Clear  
Wind Chill: 79°   Ceiling: Unl
Heat Index: 79°   Visibility: 6mi
Dew Point: 45°   Wind: 14mph
Humidity: 30%   Direction: 80°E
Pressure: 30.21"   Gusts: NA
Location:  12.53°S, 27.87°E
Report Text: FLKK 210700Z 08012KT CAVOK 26/07 Q1023
Loading
Personal Weather Stations






























Interactive Weather Map
Tropical Storm Tracking
New forecast layout! Learn more

10-Day Weather Forecast

Advertisements
Track Severe Weather on mobile